Terminal Aerodrome Forecast
Issued by NWS

Home | Current Version | Previous Version | Graphics & Text | Print | Product List | Glossary On
Versions: 1 2 3 4 5 6 7 8 9 10 11 12 13 14 15 16 17 18
498
FTUS43 KFGF 150528
TAFBJI
TAF
KBJI 150528Z 1506/1606 28007KT P6SM BKN250
     FM150800 30009KT P6SM OVC030
     FM150900 31012KT P6SM OVC010
      TEMPO 1509/1513 2SM -SN
     FM151900 32014G23KT P6SM BKN020
     FM152300 31014KT P6SM SCT070=

USA.gov is the U.S. government's official web portal to all federal, state and local government web resources and services.